x

8454000 - Providence, Ri (foxr1) Weather Station

8:30am - Wed 25th May 2016 All times are EDT. -4 hours from GMT.

  • Wind
    7mph, 8mph gusts
  • Sea Temp 55°f
  • 空気 Temp 59°f
  • Sea Pressure 1015.4mb
  • 8454000 - Providence, Ri
  • 8454000 - Providence, Ri

More Historic Weather Station data

Upgrade to MSW Pro to gain access to the past 30 days of data for over 8000 Wavebouys and Weather Stations around the globe.

Join Pro

Comparision Forecast

View Surf forecast
   
Wed 05/25 8:30am 7 8 mph 1015.4mb 55f 59f
8:24am 6 8 mph 1015.5mb 55f 59f
8:18am 7 9 mph 1015.6mb 55f 58f
8:12am 7 8 mph 1015.6mb 55f 58f
8:06am 6 7 mph 1015.7mb 55f 58f
8:00am 5 7 mph 1015.7mb 55f 58f
7:54am 6 7 mph 1015.6mb 55f 58f
7:48am 6 7 mph 1015.6mb 55f 58f
7:42am 6 8 mph 1015.7mb 55f 58f
7:36am 6 7 mph 1015.6mb 55f 58f
7:30am 6 8 mph 1015.6mb 55f 58f
7:24am 7 8 mph 1015.5mb 55f 57f
7:18am 6 8 mph 1015.4mb 55f 58f
7:12am 6 7 mph 1015.4mb 55f 58f
7:06am 5 7 mph 1015.5mb 55f 58f
7:00am 3 6 mph 1015.5mb 55f 58f
6:54am 2 5 mph 1015.6mb 55f 58f
6:48am 3 6 mph 1015.6mb 55f 57f
6:42am 3 5 mph 1015.5mb 55f 57f
6:36am 2 5 mph 1015.6mb 55f 57f
6:30am 5 6 mph 1015.3mb 55f 57f
6:24am 5
mph
1015.3mb 55f 56f
6:18am 3 5 mph 1015.2mb 55f 56f
6:12am 3 5 mph 1015.1mb 55f 56f
6:06am 5
mph
1015mb 55f 56f
5:54am 3
mph
1015.1mb 55f 57f
5:48am 2 3 mph 1015.1mb 55f 57f
5:42am 2
mph
1015mb 56f 57f
5:36am 1 2 mph 1015.1mb 56f 57f
5:30am 1 3 mph 1015.2mb 56f 57f
5:24am 2 3 mph 1015.2mb 56f 57f
5:18am  -  2 mph 1015.1mb 56f 57f
5:12am 2
mph
1015.1mb 56f 57f
5:06am 1 3 mph 1015.1mb 56f 57f
5:00am 3 5 mph 1015.2mb 56f 57f
4:54am 3 6 mph 1015.4mb 56f 57f
4:48am 5
mph
1015.3mb 56f 57f
4:42am 1
mph
1015.2mb 56f 57f
4:36am  -  1 mph 1015.1mb 56f 57f
4:30am 2 3 mph 1015.2mb 56f 57f
4:24am 2 6 mph 1015.2mb 56f 57f
4:18am 3 6 mph 1015.2mb 56f 57f
4:12am 5 6 mph 1015.3mb 56f 57f
4:06am  -  2 mph 1015.2mb 56f 57f
4:00am 3 5 mph 1015mb 56f 57f
3:54am  -  1 mph 1014.9mb 56f 57f
3:48am  -  3 mph 1015mb 56f 57f
3:42am 2 6 mph 1015mb 56f 57f
3:36am 2 5 mph 1015mb 56f 57f
3:30am 2 3 mph 1014.8mb 56f 56f
3:24am 2 3 mph 1014.8mb 56f 56f
3:18am 2 3 mph 1014.8mb 56f 56f
3:12am 5 7 mph 1014.8mb 56f 56f
3:06am 6
mph
1014.5mb 56f 56f
3:00am 3 5 mph 1014.6mb 56f 56f
2:54am  -  3 mph 1014.6mb 56f 56f
2:48am  -  2 mph 1014.7mb 56f 57f
2:42am 2 3 mph 1014.6mb 55f 56f
2:36am  -  2 mph 1014.5mb 55f 56f
2:30am 2 5 mph 1014.4mb 55f 56f
2:24am 1 3 mph 1014.6mb 55f 56f
2:18am  -  3 mph 1014.7mb 55f 56f
2:12am 2 5 mph 1014.5mb 55f 56f
2:06am 2 5 mph 1014.5mb 55f 56f
2:00am  -  2 mph 1014.4mb 55f 56f
1:54am  -  5 mph 1014.2mb 55f 56f
1:48am 3 6 mph 1013.9mb 55f 56f
1:42am 5 6 mph 1014.1mb 55f 56f
1:36am 5 6 mph 1014.1mb 55f 56f
1:30am 5 6 mph 1014.1mb 54f 56f
1:24am 6
mph
1014.1mb 54f 56f
1:18am 6
mph
1014.2mb 54f 56f
1:12am 2 6 mph 1014.2mb 54f 56f
1:06am 6
mph
1014.3mb 54f 56f
1:00am 3 5 mph 1014.3mb 54f 56f
12:54am 5
mph
1014.3mb 54f 56f
12:48am 1 3 mph 1014.4mb 54f 56f
12:42am 2 5 mph 1014.4mb 54f 56f
12:36am 2 5 mph 1014.4mb 54f 56f
12:30am 3 5 mph 1014.3mb 54f 56f
12:24am 3 6 mph 1014.3mb 54f 56f
12:18am 6
mph
1014.3mb 54f 56f
12:12am 5 7 mph 1014.4mb 54f 56f
12:06am 6 7 mph 1014.3mb 54f 56f
12:00am 7 9 mph 1014.3mb 54f 56f
Tue 05/24 11:54pm 7 9 mph 1014.2mb 54f 56f
11:48pm  -  mph 1014.2mb 54f 56f
11:42pm  -  mph 1014.3mb 54f 56f
11:36pm  -  mph 1014.2mb 54f 56f
11:30pm 8 11 mph 1014.1mb 54f 56f
11:24pm 8 11 mph 1014.1mb 54f 56f
11:18pm  -  mph 1014.1mb 55f 56f
11:12pm  -  mph 1014mb 55f 56f
11:06pm  -  mph 1014.1mb 55f 56f
11:00pm 6 8 mph 1014.1mb 55f 56f
10:54pm 6 8 mph 1014.2mb 55f 56f
10:48pm 7 9 mph - - -
10:42pm 9 10 mph - - -
10:36pm 8 13 mph - - -
10:30pm 9 11 mph - 55f -
10:24pm 6 13 mph - 55f -
10:18pm 8 11 mph - 55f -
10:12pm  -  mph 1014mb 55f 56f
10:06pm  -  mph 1014mb 55f 56f
9:54pm  -  mph 1013.8mb 55f 56f
9:48pm  -  mph 1013.7mb - -
9:42pm  -  mph 1013.7mb - -
9:36pm  -  mph 1013.6mb - -
9:30pm 9 11 mph 1013.6mb 55f -
9:24pm 6 8 mph 1013.7mb 55f -
9:18pm 6 8 mph 1013.7mb 55f -
9:12pm  -  mph 1013.6mb 55f 56f
9:06pm  -  mph 1013.6mb 55f 56f
8:54pm  -  mph 1013.5mb 55f -
8:48pm  -  mph 1013.4mb - -
8:42pm  -  mph 1013.4mb - -
8:36pm  -  mph 1013.2mb - -
8:30pm 6 9 mph 1013.2mb - 56f
8:24pm 7 9 mph 1013.1mb - 56f
8:18pm 6 7 mph 1013mb - 56f
8:12pm  -  mph 1013mb 55f 56f
8:06pm  -  mph 1012.9mb 55f 56f
8:00pm  -  mph 1012.9mb - 56f
7:54pm  -  mph 1012.9mb - 56f
7:48pm 8 10 mph - 55f -
7:42pm 8 10 mph - 55f -
7:36pm 8 10 mph - 55f -
7:30pm  -  mph 1012.8mb 55f -
7:18pm  -  mph 1012.9mb 55f -
7:12pm  -  mph 1012.9mb 55f 56f
7:06pm  -  mph 1012.8mb 55f 56f
7:00pm  -  mph 1012.8mb 55f 56f
6:54pm  -  mph 1012.7mb 55f 56f
6:48pm  -  mph 1012.6mb 55f 56f
6:42pm  -  mph 1012.5mb 55f 56f
6:36pm  -  mph 1012.5mb 55f 56f
6:30pm  -  mph 1012.5mb 55f 57f
6:24pm 9 11 mph 1012.4mb 56f -
6:18pm 9 11 mph 1012.3mb 56f -
6:12pm 11 13 mph 1012.2mb 56f -
6:06pm 10 14 mph 1012.2mb 56f -
6:00pm  -  mph - - 57f
5:54pm  -  mph - - 57f
5:48pm  -  mph 1012mb 56f 57f
5:42pm  -  mph 1012mb 56f 58f
5:36pm  -  mph 1012mb 56f 58f
5:30pm 13 16 mph 1012mb 56f 58f
5:24pm 9 15 mph 1012mb 56f 58f
5:18pm 11 14 mph 1012mb 56f 58f
5:12pm 9 13 mph 1011.9mb 56f 58f
5:06pm 9 14 mph 1011.9mb 56f 58f
4:54pm 10 14 mph 1012mb 57f 58f
4:48pm 9 14 mph 1011.9mb 57f 58f
4:42pm 10 15 mph 1011.9mb 57f 58f
4:36pm 10 16 mph 1011.8mb 57f 58f
4:30pm 11 18 mph 1011.7mb 57f 58f
4:24pm 14 17 mph 1011.6mb 57f 58f
4:18pm 13 17 mph 1011.5mb 57f 58f
4:12pm 14 16 mph 1011.5mb 57f 57f
4:06pm 13 16 mph 1011.5mb 57f 58f
4:00pm 15 18 mph 1011.5mb 57f 58f
3:54pm 11 15 mph 1011.5mb 57f 58f
3:48pm 11 14 mph 1011.5mb 57f 58f
3:42pm 10 14 mph 1011.6mb 57f 58f
3:36pm 10 14 mph 1011.7mb 57f 58f
3:30pm 11 15 mph 1011.6mb 57f 58f
3:24pm 11 14 mph 1011.6mb 57f 58f
3:18pm 9 14 mph 1011.6mb 57f 58f
3:12pm 13 15 mph 1011.6mb 57f 58f
3:06pm 13 15 mph 1011.6mb 57f 58f
3:00pm 9 14 mph 1011.6mb 57f 58f
2:54pm 9 13 mph 1011.6mb 57f 58f
2:48pm 11 14 mph 1011.6mb 57f 58f
2:42pm 10 14 mph 1011.6mb 57f 58f
2:36pm 9 15 mph 1011.6mb 57f 58f
2:30pm 11 14 mph 1011.5mb 57f 58f
2:24pm 13 15 mph 1011.5mb 57f 58f
2:18pm 10 16 mph 1011.5mb 56f 58f
2:12pm 11 15 mph 1011.4mb 56f 58f
2:06pm 14 17 mph 1011.3mb 56f 58f
2:00pm 11 14 mph 1011.2mb 56f 57f
1:54pm 14 16 mph 1011.2mb 56f 57f
1:48pm 13 16 mph 1011.3mb 56f 57f
1:42pm 11 15 mph 1011.3mb 56f 57f
1:36pm 13 18 mph 1011.3mb 56f 57f
1:30pm 14 18 mph 1011.3mb 56f 57f
1:24pm 14 18 mph 1011.3mb 56f 57f
1:18pm 14 17 mph 1011.3mb 55f 57f
1:12pm 14 17 mph 1011.5mb 55f 57f
1:06pm 14 17 mph 1011.5mb 55f 57f
1:00pm 14 17 mph 1011.5mb 55f 57f
12:54pm 13 17 mph 1011.6mb 55f 57f
12:48pm 13 16 mph 1011.5mb 55f 57f
12:42pm 14 17 mph 1011.6mb 55f 57f
12:36pm 14 16 mph 1011.6mb 55f 57f
12:30pm 14 16 mph 1011.6mb 55f 57f
12:24pm 14 16 mph 1011.7mb 55f 57f
12:18pm 13 17 mph 1011.7mb 55f 57f
12:12pm 14 18 mph 1011.6mb 55f 57f
12:06pm 13 16 mph 1011.6mb 55f 57f
12:00pm 14 18 mph 1011.5mb 55f 57f
11:54am 11 17 mph 1011.4mb 55f 57f
11:48am 14 18 mph 1011.4mb 55f 57f
11:42am 14 17 mph 1011.4mb 55f 57f
11:36am 15 18 mph 1011.3mb 55f 57f
11:30am 13 20 mph 1011.3mb 55f 57f
11:24am 17 20 mph 1011.2mb 55f 57f
11:18am 14 20 mph 1011.2mb 55f 57f
11:12am 14 17 mph 1011.3mb 55f 57f
11:06am 15 21 mph 1011.2mb 55f 57f
11:00am 15 18 mph 1011.2mb 55f 57f
10:54am 11 18 mph 1011.2mb 55f 57f
10:48am 14 18 mph 1011.2mb 55f 57f
10:42am 13 22 mph 1011.1mb 55f 57f
10:36am 13 17 mph 1011.1mb 55f 57f
10:30am 11 16 mph 1011.2mb 55f 57f
10:24am 11 15 mph 1011.1mb 55f 57f
10:18am 10 18 mph 1011.1mb 55f 56f
10:12am 14 21 mph 1011mb 55f 56f
10:06am 14 18 mph 1010.8mb 55f 56f
10:00am 9 15 mph 1010.9mb 56f 56f
9:54am 11 21 mph 1011mb 56f 56f
9:48am 15 18 mph - 56f 56f
9:42am 10 16 mph - 56f 56f
9:36am 10 18 mph - 56f 55f
9:30am 11 15 mph 1011.1mb 56f 55f
9:24am 11 18 mph 1011.1mb 56f 55f
9:18am 11 16 mph 1011mb 56f 55f
9:12am 14 18 mph 1010.9mb 56f 55f
9:06am 13 18 mph 1011mb 56f 55f
9:00am 17 20 mph 1011mb 56f 55f
8:54am 17 22 mph 1011.1mb 56f 55f
8:48am 15 23 mph 1011mb 56f 55f
8:42am 11 20 mph 1011.1mb 56f 55f
8:36am 14 17 mph 1011mb 56f 55f
8:30am 13 17 mph 1011.1mb 56f 55f
8:24am 15 18 mph 1011.1mb 56f 55f
8:18am 13 16 mph 1011.1mb 56f 55f
8:12am 14 17 mph 1011.2mb 56f 55f
8:06am 15 21 mph 1011.1mb 56f 55f
8:00am 14 18 mph 1011mb 56f 55f
7:54am 13 17 mph 1011mb 56f 55f
7:48am 14 17 mph 1010.9mb 56f 55f
7:42am 15 18 mph 1010.8mb 56f 55f
7:36am 14 18 mph 1010.8mb 56f 55f
7:30am 14 18 mph 1010.6mb 56f 56f
7:24am 9 15 mph 1010.6mb 56f 56f
7:18am 13 15 mph 1010.7mb 56f 55f
7:12am 8 16 mph 1010.9mb 56f 56f
7:06am 10 14 mph 1010.9mb 56f 55f
7:00am 11 18 mph 1010.9mb 56f 55f
6:54am 17 22 mph 1010.8mb 56f 55f
6:48am 15 20 mph 1010.8mb 56f 55f
6:42am 10 14 mph 1010.8mb 56f 56f
6:36am 11 16 mph 1010.7mb 56f 56f
6:30am 13 18 mph 1010.6mb 56f 56f
6:24am 11 16 mph 1010.7mb 56f 56f
6:18am 11 16 mph 1010.8mb 56f 55f
6:12am 14 21 mph 1010.8mb 56f 56f
6:06am 13 17 mph 1010.9mb 56f 56f
6:00am 8 11 mph 1011.1mb 56f 56f
5:54am 11 16 mph 1011.2mb 57f 56f
5:48am 15 20 mph 1011mb 57f 55f
5:42am 10 18 mph 1011mb 57f 55f
5:36am 9 11 mph 1011.2mb 57f 55f
5:30am 9 13 mph 1011.2mb 57f 56f
5:24am 10 18 mph 1011mb 57f 56f
5:18am 13 16 mph 1010.8mb 57f 56f
5:12am 13 16 mph 1010.8mb 57f 56f
5:06am 11 17 mph 1010.8mb 57f 56f
5:00am 13 16 mph 1010.7mb 57f 56f
4:54am 8 13 mph 1010.8mb 57f 56f
4:48am 10 15 mph 1010.7mb 58f 56f
4:42am 10 14 mph 1010.7mb 58f 56f
4:36am 13 16 mph 1010.5mb 58f 56f
4:30am 13 17 mph 1010.4mb 58f 56f
4:24am 14 17 mph 1010.4mb 58f 56f
4:18am 13 20 mph 1010.4mb 58f 56f
4:12am 16 21 mph 1010.2mb 58f 57f
4:06am 17 22 mph 1010.1mb 58f 57f
4:00am 16 21 mph 1010.3mb 58f 57f
3:54am 15 22 mph 1010.3mb 58f 57f
3:48am 11 17 mph 1010.6mb 58f 58f
3:42am 11 16 mph 1010.3mb 58f 58f
3:36am 14 17 mph 1010.4mb 58f 58f
3:30am 10 15 mph 1010.3mb 58f 58f
3:24am 9 13 mph 1010.5mb 58f 59f
3:18am 6 10 mph 1010.6mb 58f 59f
3:12am 11 16 mph 1010.4mb 58f 60f
3:06am 14 17 mph 1010mb 58f 60f
3:00am 9 14 mph 1010.4mb 58f 60f
2:54am 7 9 mph 1010.5mb 58f 61f
2:48am 6 9 mph 1010.5mb 58f 61f
2:42am 7 10 mph 1010.6mb 58f 62f
2:36am 7 9 mph 1010.6mb 58f 62f
2:30am 9 11 mph 1010.6mb 58f 62f
2:24am 7 13 mph 1010.5mb 57f 62f
2:18am 9 13 mph 1010.5mb 57f 62f
2:12am 10 11 mph 1010.5mb 57f 62f
2:06am 7 11 mph 1010.6mb 57f 62f
2:00am 9 14 mph 1010.5mb 57f 62f
1:54am 8 13 mph 1010.7mb 57f 62f
1:48am 7 10 mph 1010.5mb 56f 62f
1:42am  -  mph 1010.7mb 56f 62f
1:36am  -  mph 1010.9mb 56f 62f
1:30am 7 13 mph 1010.8mb 56f 63f
1:24am 10 17 mph 1010.6mb 56f 63f
1:18am 13 18 mph 1010.5mb 56f 63f
1:12am 10 15 mph 1010.7mb 56f 63f
1:06am 11 15 mph 1010.9mb 56f 63f
1:00am 8 13 mph 1011.1mb 56f 63f
12:54am 9 11 mph 1011.1mb 56f 63f
12:48am 8 15 mph 1011.2mb 56f 63f
12:42am 8 14 mph 1011.2mb 55f 64f
12:36am 8 14 mph 1011.2mb 55f 64f
12:30am 9 11 mph 1011.3mb 55f 64f
12:24am 7 10 mph 1011.5mb 55f 64f
12:18am 7 10 mph 1011.6mb 55f 64f
12:12am 6 8 mph 1011.6mb 55f 63f
12:06am 6 8 mph 1011.6mb 55f 63f
12:00am 6 8 mph 1011.6mb 55f 63f
Mon 05/23 11:54pm 6 8 mph 1011.6mb 55f 63f
11:48pm 5 8 mph 1011.6mb 55f 64f
11:42pm 6
mph
1011.7mb 55f 64f
11:36pm 5 6 mph 1011.8mb 55f 64f
11:30pm 3 7 mph 1011.8mb 55f 64f
11:24pm 6
mph
1011.8mb 55f 64f
11:18pm 2 6 mph 1011.9mb 55f 64f
11:12pm  -  mph 1011.9mb 55f 64f
11:06pm  -  mph 1011.9mb 55f 64f
11:00pm  -  mph - 55f -
10:54pm  -  mph - 55f -
10:48pm  -  mph 1011.6mb 55f -
10:42pm  -  mph 1011.6mb 55f -
10:36pm  -  mph 1011.6mb 55f -
10:30pm 6
mph
1011.6mb 55f 64f
10:24pm 5 7 mph 1011.6mb 55f 64f
10:18pm 6 8 mph 1011.7mb 56f 65f
10:12pm 7 9 mph 1011.7mb 56f -
10:06pm 6 7 mph 1011.7mb 56f -
10:00pm 6 8 mph 1011.7mb 56f 65f
9:54pm 3 5 mph 1011.5mb 56f 65f
9:48pm 3
mph
- 56f -
9:42pm 3
mph
- 56f -
9:36pm  -  2 mph - 56f -
9:30pm  -  mph - 56f -
9:24pm  -  mph - 56f -
9:18pm  -  mph - 56f -
9:12pm  -  mph - 56f -
9:06pm  -  mph - 56f -
9:00pm  -  mph - 56f 65f
8:54pm  -  mph - 56f 65f
8:48pm 6 10 mph 1010.7mb - -
8:42pm 7 9 mph 1010.8mb - -
8:36pm 6 7 mph 1010.8mb - -
8:30pm  -  mph 1010.7mb 56f -
8:24pm  -  mph 1010.7mb 56f -
8:18pm  -  mph 1010.6mb 56f -
8:12pm 6 9 mph - 56f -
8:06pm 9 10 mph - 56f -
8:00pm 6 9 mph 1010.8mb 56f 67f
7:54pm 6 8 mph 1010.9mb 56f 67f
7:48pm  -  mph 1010.8mb - -
7:42pm  -  mph 1010.8mb - -
7:36pm  -  mph 1010.9mb - -
7:30pm  -  mph - 56f -
7:24pm  -  mph - 56f -
7:18pm  -  mph - 56f -
7:12pm  -  mph 1011.1mb 56f -
7:06pm  -  mph 1011.1mb 56f -
7:00pm  -  mph 1011mb 56f -
6:54pm  -  mph 1010.8mb 56f -
6:48pm  -  mph - 56f -
6:42pm  -  mph - 56f -
6:36pm  -  mph - 56f -
6:30pm 10 18 mph 1010.5mb 56f 70f
6:24pm 15 18 mph 1010.5mb 56f 71f
6:18pm  -  mph 1010.5mb 56f -
6:12pm  -  mph 1010.4mb 56f -
6:06pm  -  mph 1010.3mb 56f -
6:00pm  -  mph 1010.2mb 56f 72f
5:54pm  -  mph 1010.1mb 56f 71f
5:48pm  -  mph 1010.2mb - -
5:42pm  -  mph 1010.4mb - -
5:36pm  -  mph 1010.3mb - -
5:30pm 14 18 mph 1010.3mb 56f 73f
5:24pm 9 18 mph 1010.3mb 56f 73f
5:18pm 14 16 mph 1010.3mb 56f 73f
5:12pm 13 17 mph 1010.3mb 56f 73f
5:06pm 13 18 mph 1010.3mb 57f 73f
5:00pm 11 15 mph 1010.3mb 57f 74f
4:54pm 13 17 mph 1010.2mb 57f 74f
4:48pm 14 18 mph 1010.2mb 57f 74f
4:42pm 11 18 mph 1010.2mb 57f 74f
4:36pm 13 17 mph 1010.3mb 57f 74f
4:30pm 9 16 mph 1010.5mb 58f 74f
4:24pm 17 21 mph 1010.5mb 58f 74f
4:18pm 16 22 mph 1010.4mb 58f 74f
4:12pm 18 23 mph 1010.4mb 58f 74f
4:06pm 14 17 mph 1010.4mb 58f 74f
4:00pm 10 20 mph 1010.5mb 58f 74f
3:54pm 13 21 mph 1010.5mb 58f 74f
3:48pm 14 21 mph 1010.5mb 58f 74f
3:42pm 13 22 mph 1010.6mb 58f 74f
3:36pm 17 25 mph 1010.7mb 58f 74f
3:30pm 15 21 mph 1010.7mb 58f 74f
3:24pm 15 21 mph 1010.8mb 58f 74f
3:18pm 10 21 mph 1010.8mb 58f 75f
3:12pm 13 25 mph 1010.7mb 58f 74f
3:06pm 14 21 mph 1010.7mb 58f 74f
3:00pm 16 21 mph 1010.7mb 58f 74f
2:54pm 14 21 mph 1010.7mb 58f 74f
2:48pm 13 17 mph 1010.8mb 58f 74f
2:42pm 9 14 mph 1010.9mb 58f 74f
2:36pm 15 17 mph 1010.9mb 57f 74f
2:30pm 14 21 mph 1010.9mb 57f 74f
2:24pm 11 18 mph 1010.8mb 57f 74f
2:18pm 10 17 mph 1010.9mb 57f 74f
2:12pm 8 16 mph 1011mb 57f 74f
2:06pm 11 16 mph 1011mb 57f 73f
2:00pm 11 17 mph 1011mb 57f -
1:54pm 14 20 mph 1011mb 57f -
1:48pm  -  mph - - 74f
1:42pm  -  mph - - 73f
1:36pm  -  mph - - 73f
1:30pm 14 18 mph 1011mb 57f 73f
1:24pm 14 20 mph 1011.2mb 56f 73f
1:18pm 14 15 mph 1011.2mb 56f 73f
1:12pm 9 15 mph 1011.3mb 56f 73f
1:06pm 14 18 mph 1011.3mb 56f 73f
1:00pm 9 21 mph 1011.2mb 56f 73f
12:54pm 15 18 mph 1011.3mb 56f 73f
12:48pm 10 15 mph 1011.4mb 56f 73f
12:42pm 11 16 mph 1011.3mb 56f 73f
12:36pm 14 18 mph 1011.5mb 56f 73f
12:30pm 14 20 mph 1011.3mb 56f 72f
12:24pm 9 17 mph 1011.4mb 56f 72f
12:18pm 13 17 mph 1011.3mb 56f 72f
12:12pm 13 17 mph 1011.4mb 56f 72f
12:06pm 9 16 mph 1011.4mb 56f 71f
12:00pm 11 14 mph 1011.4mb 56f 71f
11:54am 5 10 mph 1011.4mb 56f 71f
11:48am 6 14 mph 1011.5mb 56f 71f
11:42am 8 13 mph 1011.6mb 55f 71f
11:36am 9 13 mph 1011.7mb 55f 71f
11:30am 5 8 mph 1011.7mb 55f 70f
11:24am 6 11 mph 1011.7mb 55f 70f
11:18am 7 10 mph 1011.8mb 55f 70f
11:12am 8 11 mph 1011.8mb 55f 70f
11:06am 6 13 mph 1011.9mb 55f 69f
11:00am 6 8 mph 1011.9mb 55f 69f
10:54am 3 6 mph 1012mb 55f 68f
10:48am  -  3 mph 1012.1mb 55f 68f
10:42am 2 5 mph 1012.1mb 55f 67f
10:36am 3
mph
1012.1mb 55f 67f
10:30am 2 5 mph 1012.2mb 55f 67f
10:24am 3 6 mph 1012.3mb 55f 66f
10:18am 3 5 mph 1012.3mb 55f 66f
10:12am 2 3 mph 1012.3mb 55f 66f
10:06am 1 2 mph 1012.4mb 55f 65f
10:00am 1 2 mph 1012.5mb 55f 64f
9:54am 2 3 mph 1012.5mb 55f 64f
9:48am 2
mph
1012.6mb 55f 63f
9:42am 2
mph
1012.7mb 55f 63f
9:36am 2
mph
1012.7mb 56f 62f
9:30am 2 3 mph 1012.7mb 56f 62f
9:24am 3 5 mph 1012.7mb 56f 61f
9:18am 5
mph
1012.8mb 56f 60f
9:12am 3 5 mph 1012.8mb 56f 60f
9:06am 2
mph
1012.7mb 56f 60f
9:00am  -  2 mph 1012.7mb 56f 60f
8:54am 2 3 mph 1012.7mb 56f 59f
8:48am 2 3 mph 1012.7mb 56f 58f
8:42am 3 6 mph 1012.6mb 56f 58f
8:36am 6
mph
1012.7mb 56f 57f
8:30am 5
mph
1012.7mb 56f 57f
8:24am 3 5 mph 1012.8mb 56f 57f
8:18am 5
mph
1012.8mb 56f 57f
8:12am 5
mph
1012.8mb 56f 57f
8:06am 2 3 mph 1012.7mb 56f 57f
8:00am 2 3 mph 1012.6mb 56f 57f
7:54am 2
mph
1012.6mb 56f 57f
7:48am 2 3 mph 1012.6mb 56f 57f
7:42am 2 5 mph 1012.6mb 56f 57f
7:36am 3 6 mph 1012.6mb 56f 57f
7:30am 5 6 mph 1012.7mb 56f 56f
7:24am 5
mph
1012.6mb 56f 56f
7:18am 2 3 mph 1012.6mb 56f 56f
7:12am 2 3 mph 1012.6mb 56f 56f
7:06am 3 5 mph 1012.6mb 56f 56f
7:00am 2
mph
1012.5mb 56f 58f
6:54am  -  1 mph 1012.3mb 56f 59f
6:48am 1 2 mph 1012.1mb 56f 59f
6:42am 3 5 mph 1012mb 56f 57f
6:36am 5 6 mph 1011.9mb 56f 55f
6:30am 6
mph
1011.8mb 56f 55f
6:24am 5 6 mph 1011.8mb 56f 55f
6:18am 5 8 mph 1011.7mb 56f 54f
6:12am 7 8 mph 1011.8mb 56f 54f
6:06am 5 6 mph 1012mb 56f 54f
6:00am 6 8 mph 1012mb 56f 53f
5:54am 7 8 mph 1012.1mb 56f 53f
5:48am 5 7 mph 1012mb 56f 53f
5:42am 6 8 mph 1012.2mb 56f 53f
5:36am 3 6 mph 1012.2mb 56f 53f
5:30am 2 6 mph 1012.1mb 56f 53f
5:24am 3 6 mph 1012.2mb 56f 52f
5:18am 3
mph
1012.2mb 56f 52f
5:12am  -  1 mph 1012.2mb 56f 52f
5:06am 1 2 mph 1012.3mb 57f 52f
5:00am 2
mph
1012.2mb 57f 52f
4:54am  -  2 mph 1012.1mb 57f 52f
4:48am 1 3 mph 1012mb 57f 53f
4:42am 2 3 mph 1012mb 57f 53f
4:36am 2
mph
1011.9mb 57f 53f
4:30am 1 2 mph 1011.9mb 57f 52f
4:24am 2 3 mph 1011.8mb 57f 52f
4:18am 3
mph
1011.7mb 57f 52f
4:12am 2
mph
1011.7mb 57f 52f
4:06am 1 2 mph 1011.5mb 57f 52f
4:00am 2 3 mph 1011.5mb 57f 52f
3:54am 2 6 mph 1011.3mb 57f 53f
3:48am 5 6 mph 1011.3mb 57f 52f
3:42am 3 6 mph 1011.3mb 57f 53f
3:36am 3 6 mph 1011.3mb 57f 53f
3:30am 6 7 mph 1011.3mb 57f 52f
3:24am 3 6 mph 1011.3mb 57f 53f
3:18am 5 6 mph 1011.2mb 57f 53f
3:12am 5 6 mph 1011.1mb 57f 53f
3:06am 3 5 mph 1011.1mb 57f 53f
3:00am 2 3 mph 1011.2mb 57f 53f
2:54am 2 3 mph 1011.2mb 57f 53f
2:48am 2 3 mph 1011.3mb 57f 53f
2:42am 2 3 mph 1011.2mb 57f 54f
2:36am 2
mph
1011.2mb 57f 54f
2:30am 2 3 mph 1011.3mb 57f 54f
2:24am 2 3 mph 1011.4mb 57f 54f
2:18am 1 2 mph 1011.5mb 57f 54f
2:12am 1 3 mph 1011.5mb 57f 54f
2:06am 3 5 mph 1011.6mb 57f 54f
2:00am 3 5 mph 1011.7mb 57f 54f
1:54am 2 3 mph 1011.7mb 57f 54f
1:48am 1 2 mph 1011.8mb 57f 53f
1:42am  -  mph 1011.9mb 57f 54f
1:36am  -  mph 1012mb 57f 54f
1:30am 2
mph
1012mb 57f 53f
1:24am 1 5 mph 1012.1mb 57f 53f
1:18am 5 6 mph 1012.1mb 57f 53f
1:12am 3 5 mph 1012mb 56f 54f
1:06am 5 6 mph 1011.9mb 56f 55f
1:00am 6
mph
1011.8mb 56f 55f
12:54am 5 6 mph 1011.6mb 56f 55f
12:48am 6
mph
1011.7mb 56f 55f
12:42am 6
mph
1011.6mb 56f 55f
12:36am 3 5 mph 1011.6mb 56f 55f
12:30am 3 5 mph 1011.7mb 56f 56f
12:24am 5 6 mph 1011.7mb 56f 56f
12:18am 5
mph
1011.6mb 56f 56f
12:12am 5
mph
1011.6mb 56f 56f
12:06am 3
mph
1011.6mb 56f 57f
12:00am 2 3 mph 1011.5mb 56f 56f
Sun 05/22 11:54pm 2 5 mph 1011.5mb 56f 56f
11:48pm 1 2 mph 1011.5mb 56f 56f
11:42pm 1 2 mph 1011.5mb 55f 56f
11:36pm  -  2 mph 1011.6mb 55f 56f
11:30pm 2
mph
1011.6mb 55f 57f
11:24pm 2
mph
1011.7mb 55f 56f
11:18pm 2
mph
1011.7mb 56f 57f
11:12pm  -  mph 1011.8mb 56f 57f
11:06pm  -  mph 1011.8mb 56f 57f
11:00pm  -  mph 1011.7mb 56f -
10:54pm  -  mph 1011.8mb 56f -
10:48pm  -  2 mph 1011.7mb 56f -
10:42pm 1 2 mph 1011.8mb 56f -
10:36pm 1 2 mph 1011.8mb 56f -
10:30pm 1 2 mph 1011.7mb 56f -
10:24pm 2 3 mph 1011.7mb 56f -
10:18pm 3
mph
1011.6mb 56f -
10:12pm  -  mph 1011.5mb 56f -
10:06pm  -  mph 1011.4mb 56f -
10:00pm 2 3 mph 1011.5mb 56f 59f
9:54pm 2 3 mph 1011.4mb 56f 59f
9:48pm 3 5 mph 1011.4mb - -
9:42pm 3
mph
1011.3mb - -
9:36pm 3 5 mph 1011.1mb - -
9:30pm 2 5 mph 1011.1mb 56f 59f
9:24pm 3 5 mph 1011.1mb 56f 60f
9:18pm 3 6 mph 1011mb 56f 60f
9:12pm  -  mph 1010.9mb 56f 60f
9:06pm  -  mph 1010.9mb 56f 61f
9:00pm 6 7 mph 1010.9mb 56f 61f
8:54pm 6
mph
1010.8mb 56f 61f
8:48pm 5 6 mph 1010.7mb 56f -
8:42pm 5 6 mph 1010.6mb 56f -
8:36pm 5 6 mph 1010.5mb 56f -
8:30pm  -  mph 1010.5mb 56f -
8:24pm  -  mph 1010.4mb 56f -
8:18pm  -  mph 1010.5mb 56f -
8:12pm 5 6 mph - 56f -
8:06pm 5 6 mph - 56f -
8:00pm  -  mph 1010.3mb 56f -
7:54pm  -  mph 1010.2mb 56f -
7:48pm  -  mph 1010mb 56f -
7:42pm  -  mph 1009.9mb 56f -
7:36pm  -  mph 1009.8mb 56f -
7:30pm  -  mph 1009.6mb 56f -
7:24pm  -  mph 1009.5mb 56f -
7:18pm  -  mph 1009.4mb 56f -
7:12pm  -  mph 1009.4mb 56f 64f
7:06pm  -  mph 1009.3mb 56f 64f
7:00pm  -  mph - 56f -
6:54pm  -  mph - 56f -
6:48pm 13 17 mph - 56f -
6:42pm 11 17 mph - 56f -
6:36pm 10 11 mph - 56f -
6:30pm  -  mph - 57f -
6:24pm  -  mph - 57f -
6:18pm 9 13 mph - 57f -
6:12pm 10 14 mph - 57f -
6:06pm 8 13 mph - 57f -
6:00pm  -  mph - 57f -
5:54pm  -  mph - 57f -
5:48pm  -  mph - 57f -
5:42pm  -  mph 1009mb 57f 65f
5:36pm  -  mph 1008.9mb 57f 65f
5:30pm 14 18 mph 1008.8mb 57f 65f
5:24pm 11 16 mph 1008.8mb 57f 65f
5:18pm 15 17 mph 1008.7mb 57f 65f
5:12pm 15 18 mph 1008.8mb 57f 65f
5:06pm 16 21 mph 1008.8mb 57f 65f
5:00pm 11 16 mph 1008.8mb 57f 65f
4:54pm 14 18 mph 1008.7mb 57f 65f
4:48pm 14 18 mph 1008.5mb 57f 65f
4:42pm 14 16 mph 1008.5mb 57f 65f
4:36pm 15 17 mph 1008.5mb 57f 65f
4:30pm 10 15 mph 1008.5mb 57f 65f
4:24pm 11 14 mph 1008.5mb 57f 65f
4:18pm 11 15 mph 1008.5mb 57f 65f
4:12pm 10 16 mph 1008.6mb 57f 65f
4:06pm 15 21 mph 1008.6mb 57f 65f
4:00pm 14 22 mph 1008.5mb 57f 64f
3:54pm 15 20 mph 1008.5mb 57f 64f
3:48pm 14 16 mph 1008.5mb 58f 65f
3:42pm 13 16 mph 1008.6mb 58f 65f
3:36pm 9 14 mph 1008.7mb 58f 65f
3:30pm 11 15 mph 1008.7mb 58f 65f
3:24pm 13 16 mph 1008.6mb 59f 65f
3:18pm 15 18 mph 1008.6mb 59f 65f
3:12pm 13 21 mph 1008.6mb 59f 65f
3:06pm 17 20 mph 1008.5mb 59f 65f
3:00pm 14 21 mph 1008.6mb 58f 65f
2:54pm 15 20 mph 1008.6mb 58f 65f
2:48pm 17 20 mph 1008.6mb 58f 65f
2:42pm 14 17 mph 1008.8mb 58f 65f
2:36pm 15 20 mph 1008.9mb 58f 65f
2:30pm 16 22 mph 1008.8mb 58f 65f
2:24pm 15 22 mph 1008.7mb 58f 65f
2:18pm 11 21 mph 1008.6mb 58f 65f
2:12pm 15 21 mph 1008.5mb 58f 65f
2:06pm 16 18 mph 1008.4mb 58f 65f
2:00pm 15 23 mph 1008.3mb 58f 65f
1:54pm 14 21 mph 1008.3mb 58f 65f
1:48pm 16 22 mph 1008.2mb 58f 66f
1:42pm 14 20 mph 1008.1mb 58f 65f
1:36pm 15 20 mph 1008.2mb 58f 64f
1:30pm 11 18 mph 1008.2mb 58f 64f
1:24pm 13 17 mph 1008.3mb 58f 64f
1:18pm 14 20 mph 1008.3mb 58f 64f
1:12pm 13 18 mph 1008.3mb 58f 64f
1:06pm 11 17 mph 1008.3mb 58f 64f
1:00pm 14 20 mph 1008.3mb 58f 63f
12:54pm 15 21 mph 1008.3mb 58f 63f
12:48pm 13 17 mph 1008.4mb 58f 63f
12:42pm 14 18 mph 1008.5mb 58f 63f
12:36pm 13 16 mph 1008.6mb 58f 63f
12:30pm 11 16 mph 1008.6mb 58f 62f
12:24pm 11 15 mph 1008.6mb 58f 62f
12:18pm 11 15 mph 1008.6mb 58f 62f
12:12pm 11 15 mph 1008.7mb 58f 62f
12:06pm 9 14 mph 1008.8mb 57f 62f
12:00pm 10 14 mph 1008.8mb 57f 62f
11:54am 11 16 mph 1008.8mb 57f 62f
11:48am 13 16 mph 1008.9mb 57f 62f
11:42am 9 13 mph 1008.8mb 57f 62f
11:36am 11 14 mph 1008.8mb 57f 62f
11:30am 8 14 mph 1008.8mb 57f 63f
11:24am 10 13 mph 1008.8mb 57f 63f
11:18am 10 14 mph 1008.8mb 57f 63f
11:12am 11 15 mph 1008.8mb 57f 63f
11:06am 7 8 mph 1008.9mb 57f 63f
11:00am 6 10 mph 1008.9mb 57f 63f
10:54am 6 13 mph 1008.9mb 57f 63f
10:48am 10 14 mph 1008.9mb 57f 62f
10:42am 10 14 mph 1008.9mb 57f 62f
10:36am 11 14 mph 1008.8mb 57f 62f
10:30am 9 15 mph 1008.9mb 57f 62f
10:24am 9 16 mph 1008.9mb 57f 62f
10:18am 14 15 mph 1008.8mb 57f 62f
10:12am 13 15 mph 1008.8mb 57f 62f
10:06am 11 15 mph 1008.9mb 57f 62f
10:00am 9 16 mph 1008.9mb 57f 62f
9:54am 11 15 mph 1008.9mb 57f 62f
9:48am 10 16 mph 1009mb 57f 62f
9:42am 9 16 mph 1008.9mb 57f 62f
9:36am 13 16 mph 1008.8mb 57f 62f
9:30am 9 14 mph 1008.8mb 57f 62f
9:24am 8 14 mph 1008.8mb 57f 62f
9:18am 9 15 mph 1008.7mb 57f 62f
9:12am 11 14 mph 1008.7mb 57f 62f
9:06am 7 10 mph 1008.7mb 57f 62f
9:00am 8 13 mph 1008.6mb 57f 62f
8:54am 7 14 mph 1008.6mb 57f 62f
8:48am 6 11 mph 1008.6mb 57f 62f
8:42am 9 14 mph 1008.5mb 57f 61f
8:36am 9 14 mph 1008.6mb 57f 61f
8:30am 9 15 mph 1008.6mb 57f 61f
8:24am 10 13 mph 1008.6mb 57f 61f
8:18am 10 17 mph 1008.6mb 57f 60f
8:12am 14 17 mph 1008.6mb 57f 60f
8:06am 14 18 mph 1008.6mb 57f 60f
8:00am 13 20 mph 1008.6mb 57f 59f
7:54am 14 17 mph 1008.5mb 57f 59f
7:48am 14 16 mph 1008.5mb 57f 59f
7:42am 10 14 mph 1008.6mb 57f 59f
7:36am 10 13 mph 1008.7mb 57f 59f
7:30am 9 13 mph 1008.6mb 57f 58f
7:24am 8 13 mph 1008.7mb 57f 58f
7:18am 8 14 mph 1008.7mb 57f 58f
7:12am 9 11 mph 1008.6mb 57f 58f
7:06am 8 10 mph 1008.5mb 57f 58f
7:00am 8 10 mph 1008.5mb 57f 57f
6:54am 9 13 mph 1008.4mb 57f 57f
6:48am 9 11 mph 1008.4mb 57f 57f
6:42am 8 10 mph 1008.3mb 57f 57f
6:36am 9 13 mph 1008.2mb 57f 57f
6:30am 9 14 mph 1008.1mb 57f 57f
6:24am 11 13 mph 1008.1mb 57f 57f
6:18am 8 13 mph 1008.2mb 57f 57f
6:12am 9 14 mph 1008.3mb 57f 57f
6:06am 8 11 mph 1008.3mb 58f 57f
6:00am 9 11 mph 1008.3mb 58f 57f
5:54am 7 10 mph 1008.3mb 58f 57f
5:48am 6 9 mph 1008.4mb 58f 57f
5:42am 8 10 mph 1008.4mb 58f 56f
5:36am 6 9 mph 1008.4mb 58f 56f
5:30am 7 9 mph 1008.4mb 58f 56f
5:24am 5 9 mph 1008.5mb 58f 56f
5:18am 7 10 mph 1008.5mb 58f 56f
5:12am 7 9 mph 1008.6mb 58f 56f
5:06am 7 10 mph 1008.6mb 58f 56f
5:00am 8 10 mph 1008.4mb 58f 56f
4:54am 9 11 mph 1008.4mb 58f 56f
4:48am 9 11 mph 1008.4mb 58f 56f
4:42am 11 14 mph 1008.3mb 58f 56f
4:36am 10 13 mph 1008.3mb 58f 56f
4:30am 11 13 mph 1008.3mb 58f 56f
4:24am 9 13 mph 1008.3mb 58f 56f
4:18am 11 14 mph 1008.4mb 58f 56f
4:12am 9 11 mph 1008.4mb 58f 56f
4:06am 10 11 mph 1008.5mb 58f 56f
4:00am 9 11 mph 1008.5mb 58f 56f
3:54am 10 11 mph 1008.6mb 58f 56f
3:48am 8 10 mph 1008.7mb 58f 56f
3:42am 7 9 mph 1008.8mb 58f 56f
3:36am 7 9 mph 1008.9mb 59f 56f
3:30am 7 9 mph 1009mb 59f 56f
3:24am 7 10 mph 1009.1mb 59f 56f
3:18am 7 9 mph 1009.2mb 59f 56f
3:12am 6 8 mph 1009.2mb 59f 56f
3:06am 5 7 mph 1009.5mb 59f 56f
3:00am 6 8 mph 1009.7mb 59f 56f
2:54am 7 10 mph 1009.7mb 59f 56f
2:48am 8 9 mph 1009.9mb 59f 56f
2:42am 6 8 mph 1010mb 59f 56f
2:36am 8
mph
1010.1mb 59f 56f
2:30am 6 7 mph 1010.2mb 59f 56f
2:24am 6 7 mph 1010.4mb 59f 56f
2:18am 6 7 mph 1010.4mb 59f 56f
2:12am 5 7 mph 1010.4mb 59f 56f
2:06am 6 7 mph 1010.3mb 59f 56f
2:00am 6 7 mph 1010.4mb 59f 57f
1:54am 6 7 mph 1010.4mb 59f 57f
1:48am  -  mph 1010.3mb 59f 57f
1:42am  -  mph 1010.5mb 59f 57f
1:36am  -  mph 1010.5mb 59f 57f
1:30am 5
mph
1010.4mb 59f 57f
1:24am 3
mph
1010.5mb 59f 56f
1:18am 2
mph
1010.7mb 59f 56f
1:12am 1 3 mph 1010.8mb 59f 56f
1:06am 2 3 mph 1010.9mb 59f 56f
1:00am 2 3 mph 1011.1mb 59f 56f
12:54am 2 5 mph 1011.3mb 59f 57f
12:48am 2 3 mph 1011.5mb 59f 57f
12:42am 2 3 mph 1011.7mb 59f 57f
12:36am 2 3 mph 1011.8mb 59f 57f
12:30am 2 5 mph 1011.8mb 59f 57f
12:24am 3
mph
1011.9mb 59f 57f
12:18am 2 3 mph 1012mb 59f 57f
12:12am 1 2 mph 1012mb 59f 57f
12:06am 2 5 mph 1012mb 59f 57f
12:00am 3 5 mph 1011.8mb 58f 57f
Sat 05/21 11:54pm 3 5 mph 1011.8mb 58f 57f
11:48pm  -  mph 1011.9mb 58f 57f
11:42pm  -  mph 1012.1mb 58f 57f
11:36pm  -  mph 1012.2mb 58f 58f
11:30pm 2 3 mph 1012.4mb 58f 57f
11:24pm 3
mph
1012.5mb 58f 58f
11:18pm  -  mph 1012.6mb 58f 58f
11:12pm  -  mph 1012.5mb 58f 58f
11:06pm  -  mph 1012.7mb 58f 58f
11:00pm  -  mph 1012.9mb 58f -
10:54pm  -  mph 1012.9mb 58f -
10:48pm  -  mph 1013.1mb - -
10:42pm  -  mph 1013.3mb - -
10:36pm  -  mph 1013.3mb - -
10:30pm  -  mph - 58f -
10:24pm  -  mph - 58f -
10:18pm  -  mph 1013.4mb 58f 58f
10:12pm  -  mph 1013.4mb 58f 58f
10:06pm  -  mph 1013.5mb 58f 58f
10:00pm  -  mph 1013.7mb 58f 58f
9:54pm  -  mph 1013.6mb 58f 58f
9:48pm  -  mph 1013.8mb - -
9:42pm  -  mph 1013.8mb - -
9:36pm  -  mph 1014mb - -
9:30pm  -  mph 1014mb - -
9:24pm  -  mph 1014.2mb - -
9:18pm  -  mph 1014.4mb 58f 59f
9:12pm  -  mph 1014.5mb 58f 58f
9:06pm  -  mph 1014.5mb 58f 58f
9:00pm  -  mph 1014.5mb 58f -
8:54pm  -  mph 1014.5mb 58f -
8:48pm  -  mph 1014.5mb 58f -
8:42pm  -  mph 1014.6mb - -
8:36pm  -  mph 1014.6mb - -
8:30pm 5 8 mph 1014.5mb 58f -
8:24pm 6 9 mph 1014.5mb 58f -
8:18pm  -  mph 1014.5mb 58f 59f
8:12pm  -  mph 1014.5mb 58f 58f
8:06pm  -  mph 1014.5mb 58f 59f
8:00pm  -  mph - 58f -
7:54pm  -  mph - 58f -
7:48pm  -  mph - 58f -
7:42pm  -  mph 1014.8mb - -
7:36pm  -  mph 1014.8mb - -
7:30pm 6 8 mph 1015mb 58f 59f
7:24pm 6 7 mph 1014.9mb 57f 59f
7:18pm  -  mph 1014.9mb 57f -
7:12pm  -  mph 1015mb 58f -
7:06pm  -  mph 1015mb 57f -
7:00pm  -  mph - 57f 59f
6:54pm  -  mph - 57f 59f
6:48pm  -  mph - 57f 59f
6:42pm  -  mph 1015mb 57f -
6:36pm  -  mph 1015mb 57f -
6:30pm  -  mph 1014.9mb 57f -
6:24pm  -  mph 1015.1mb 57f -
6:18pm  -  mph 1015.2mb 57f 60f
6:12pm  -  mph 1015.3mb 57f 60f
6:06pm  -  mph 1015.5mb 57f 60f
6:00pm  -  mph 1015.6mb 57f -
5:54pm  -  mph 1015.7mb 57f -
5:48pm  -  mph 1015.8mb 57f -
5:42pm  -  mph 1015.8mb - -
5:36pm  -  mph 1015.8mb - -
5:30pm 13 16 mph 1015.8mb 57f 61f
5:24pm 13 15 mph 1015.9mb 57f 61f
5:18pm 10 11 mph 1016mb 57f 61f
5:12pm 9 13 mph 1016mb 57f 61f
5:06pm 10 13 mph 1016.1mb 57f 61f
5:00pm 13 14 mph 1016.2mb 57f 61f
4:54pm 11 16 mph 1016.2mb 57f 61f
4:48pm 14 17 mph 1016.4mb 57f 61f
4:42pm 13 15 mph 1016.3mb 57f 62f
4:36pm 8 11 mph 1016.3mb 57f 62f
4:30pm 10 15 mph 1016.3mb 57f 62f
4:24pm 14 15 mph 1016.5mb 57f 62f
4:18pm 9 11 mph 1016.4mb 57f 64f
4:12pm 8 11 mph 1016.4mb 57f 64f
4:06pm 10 13 mph 1016.4mb 57f 64f
4:00pm 10 15 mph 1016.6mb 58f 64f
3:54pm 9 15 mph 1016.6mb 58f 64f
3:48pm 11 18 mph 1016.7mb 58f 64f
3:42pm 13 16 mph 1016.8mb 57f 63f
3:36pm 11 16 mph 1016.8mb 57f 63f
3:30pm 15 21 mph 1016.9mb 58f 63f
3:24pm 16 20 mph 1017mb 58f 61f
3:18pm 16 21 mph 1016.9mb 58f 61f
3:12pm 16 20 mph 1016.9mb 58f 61f
3:06pm 17 20 mph 1016.8mb 58f 61f
3:00pm 16 20 mph 1016.9mb 58f 61f
2:54pm 15 18 mph 1017mb 59f 62f
2:48pm 14 20 mph 1017.1mb 59f 62f
2:42pm 15 22 mph 1017.3mb 59f 62f
2:36pm 17 22 mph 1017.4mb 59f 62f
2:30pm 13 17 mph 1017.3mb 59f 62f
2:24pm 13 16 mph 1017.4mb 59f 62f
2:18pm 15 18 mph 1017.5mb 59f 62f
2:12pm 15 18 mph 1017.6mb 59f 62f
2:06pm 17 20 mph 1017.7mb 59f 62f
2:00pm 15 18 mph 1017.7mb 59f 62f
1:54pm 18 22 mph 1017.8mb 59f 62f
1:48pm 18 22 mph 1017.8mb 59f 62f
1:42pm 18 22 mph 1017.9mb 59f 62f
1:36pm 15 21 mph 1018mb 59f 62f
1:30pm 17 21 mph 1018mb 59f 62f
1:24pm 18 21 mph 1018.1mb 59f 62f
1:18pm 16 21 mph 1018mb 58f 62f